sensor_id;sensor_type;location;lat;lon;timestamp;P1;durP1;ratioP1;P2;durP2;ratioP2
11539;SDS011;5826;54.756;9.192;2022-09-17T00:00:14;5.50;;;2.00;;
11539;SDS011;5826;54.756;9.192;2022-09-17T00:02:41;10.13;;;2.40;;
11539;SDS011;5826;54.756;9.192;2022-09-17T00:05:08;9.80;;;2.53;;
11539;SDS011;5826;54.756;9.192;2022-09-17T00:07:34;9.15;;;2.10;;
11539;SDS011;5826;54.756;9.192;2022-09-17T00:09:59;4.97;;;1.90;;
11539;SDS011;5826;54.756;9.192;2022-09-17T00:12:25;7.22;;;2.03;;
11539;SDS011;5826;54.756;9.192;2022-09-17T00:14:50;6.88;;;2.45;;
11539;SDS011;5826;54.756;9.192;2022-09-17T00:17:16;7.03;;;2.10;;
11539;SDS011;5826;54.756;9.192;2022-09-17T00:19:41;6.78;;;2.10;;
11539;SDS011;5826;54.756;9.192;2022-09-17T00:22:07;8.02;;;2.05;;
11539;SDS011;5826;54.756;9.192;2022-09-17T00:24:32;6.15;;;1.90;;
11539;SDS011;5826;54.756;9.192;2022-09-17T00:26:58;11.13;;;2.85;;
11539;SDS011;5826;54.756;9.192;2022-09-17T00:29:23;7.18;;;2.30;;
11539;SDS011;5826;54.756;9.192;2022-09-17T00:31:49;6.18;;;1.90;;
11539;SDS011;5826;54.756;9.192;2022-09-17T00:34:14;8.65;;;2.20;;
11539;SDS011;5826;54.756;9.192;2022-09-17T00:36:40;8.85;;;2.60;;
11539;SDS011;5826;54.756;9.192;2022-09-17T00:39:06;7.07;;;2.08;;
11539;SDS011;5826;54.756;9.192;2022-09-17T00:41:34;5.85;;;2.28;;
11539;SDS011;5826;54.756;9.192;2022-09-17T00:44:34;8.20;;;2.20;;
11539;SDS011;5826;54.756;9.192;2022-09-17T00:47:04;6.45;;;2.38;;
11539;SDS011;5826;54.756;9.192;2022-09-17T00:49:32;7.25;;;2.00;;
11539;SDS011;5826;54.756;9.192;2022-09-17T00:52:00;7.70;;;2.10;;
11539;SDS011;5826;54.756;9.192;2022-09-17T00:54:30;11.07;;;2.58;;
11539;SDS011;5826;54.756;9.192;2022-09-17T00:56:57;8.70;;;2.40;;
11539;SDS011;5826;54.756;9.192;2022-09-17T00:59:23;6.82;;;2.35;;
11539;SDS011;5826;54.756;9.192;2022-09-17T01:01:49;13.57;;;2.40;;
11539;SDS011;5826;54.756;9.192;2022-09-17T01:04:18;8.23;;;2.00;;
11539;SDS011;5826;54.756;9.192;2022-09-17T01:06:50;6.82;;;2.17;;
11539;SDS011;5826;54.756;9.192;2022-09-17T01:09:52;7.93;;;2.30;;
11539;SDS011;5826;54.756;9.192;2022-09-17T01:15:19;8.27;;;2.40;;
11539;SDS011;5826;54.756;9.192;2022-09-17T01:18:21;8.63;;;2.55;;
11539;SDS011;5826;54.756;9.192;2022-09-17T01:21:04;9.32;;;2.42;;
11539;SDS011;5826;54.756;9.192;2022-09-17T01:32:51;6.05;;;2.05;;
11539;SDS011;5826;54.756;9.192;2022-09-17T01:38:12;6.95;;;2.13;;
11539;SDS011;5826;54.756;9.192;2022-09-17T01:41:09;6.53;;;2.05;;
11539;SDS011;5826;54.756;9.192;2022-09-17T01:43:57;6.65;;;2.10;;
11539;SDS011;5826;54.756;9.192;2022-09-17T01:46:42;4.70;;;1.92;;
11539;SDS011;5826;54.756;9.192;2022-09-17T01:49:17;7.43;;;2.13;;
11539;SDS011;5826;54.756;9.192;2022-09-17T01:51:46;6.03;;;1.77;;
11539;SDS011;5826;54.756;9.192;2022-09-17T01:57:01;8.13;;;2.25;;
11539;SDS011;5826;54.756;9.192;2022-09-17T01:59:34;7.82;;;2.05;;
11539;SDS011;5826;54.756;9.192;2022-09-17T02:02:11;7.25;;;2.00;;
11539;SDS011;5826;54.756;9.192;2022-09-17T02:04:42;8.38;;;2.20;;
11539;SDS011;5826;54.756;9.192;2022-09-17T02:07:17;9.90;;;2.22;;
11539;SDS011;5826;54.756;9.192;2022-09-17T02:09:54;6.75;;;2.10;;
11539;SDS011;5826;54.756;9.192;2022-09-17T02:12:42;5.55;;;1.77;;
11539;SDS011;5826;54.756;9.192;2022-09-17T02:15:19;5.22;;;1.85;;
11539;SDS011;5826;54.756;9.192;2022-09-17T02:17:56;6.00;;;2.10;;
11539;SDS011;5826;54.756;9.192;2022-09-17T02:20:29;4.85;;;2.10;;
11539;SDS011;5826;54.756;9.192;2022-09-17T02:23:06;6.43;;;2.08;;
11539;SDS011;5826;54.756;9.192;2022-09-17T02:26:11;8.93;;;2.10;;
11539;SDS011;5826;54.756;9.192;2022-09-17T02:28:37;7.13;;;2.10;;
11539;SDS011;5826;54.756;9.192;2022-09-17T02:31:07;8.98;;;2.58;;
11539;SDS011;5826;54.756;9.192;2022-09-17T02:33:33;5.97;;;1.60;;
11539;SDS011;5826;54.756;9.192;2022-09-17T02:36:01;8.70;;;2.22;;
11539;SDS011;5826;54.756;9.192;2022-09-17T02:38:27;8.23;;;2.15;;
11539;SDS011;5826;54.756;9.192;2022-09-17T02:41:05;7.20;;;1.85;;
11539;SDS011;5826;54.756;9.192;2022-09-17T02:43:49;7.38;;;1.85;;
11539;SDS011;5826;54.756;9.192;2022-09-17T02:49:42;7.20;;;2.28;;
11539;SDS011;5826;54.756;9.192;2022-09-17T02:52:34;5.55;;;1.98;;
11539;SDS011;5826;54.756;9.192;2022-09-17T02:55:27;9.25;;;2.33;;
11539;SDS011;5826;54.756;9.192;2022-09-17T02:58:04;5.90;;;1.92;;
11539;SDS011;5826;54.756;9.192;2022-09-17T03:00:34;11.63;;;2.30;;
11539;SDS011;5826;54.756;9.192;2022-09-17T03:05:37;8.45;;;2.13;;
11539;SDS011;5826;54.756;9.192;2022-09-17T03:08:06;5.63;;;1.80;;
11539;SDS011;5826;54.756;9.192;2022-09-17T03:10:33;6.18;;;1.88;;
11539;SDS011;5826;54.756;9.192;2022-09-17T03:12:59;8.10;;;1.60;;
11539;SDS011;5826;54.756;9.192;2022-09-17T03:15:25;5.68;;;1.73;;
11539;SDS011;5826;54.756;9.192;2022-09-17T03:17:50;5.13;;;1.95;;
11539;SDS011;5826;54.756;9.192;2022-09-17T03:20:16;8.95;;;2.33;;
11539;SDS011;5826;54.756;9.192;2022-09-17T03:22:42;9.73;;;2.13;;
11539;SDS011;5826;54.756;9.192;2022-09-17T03:25:08;5.55;;;1.83;;
11539;SDS011;5826;54.756;9.192;2022-09-17T03:27:33;6.90;;;2.13;;
11539;SDS011;5826;54.756;9.192;2022-09-17T03:29:59;6.85;;;2.05;;
11539;SDS011;5826;54.756;9.192;2022-09-17T03:32:25;7.60;;;1.85;;
11539;SDS011;5826;54.756;9.192;2022-09-17T03:34:50;6.72;;;1.70;;
11539;SDS011;5826;54.756;9.192;2022-09-17T03:37:17;5.68;;;1.70;;
11539;SDS011;5826;54.756;9.192;2022-09-17T03:39:43;7.25;;;1.90;;
11539;SDS011;5826;54.756;9.192;2022-09-17T03:42:08;7.13;;;1.85;;
11539;SDS011;5826;54.756;9.192;2022-09-17T03:44:34;7.90;;;1.90;;
11539;SDS011;5826;54.756;9.192;2022-09-17T03:46:59;6.57;;;1.75;;
11539;SDS011;5826;54.756;9.192;2022-09-17T03:49:25;4.60;;;1.35;;
11539;SDS011;5826;54.756;9.192;2022-09-17T03:51:50;6.70;;;2.00;;
11539;SDS011;5826;54.756;9.192;2022-09-17T03:54:16;5.57;;;1.52;;
11539;SDS011;5826;54.756;9.192;2022-09-17T03:56:41;8.40;;;2.40;;
11539;SDS011;5826;54.756;9.192;2022-09-17T03:59:07;4.90;;;1.70;;
11539;SDS011;5826;54.756;9.192;2022-09-17T04:01:33;6.82;;;1.80;;
11539;SDS011;5826;54.756;9.192;2022-09-17T04:03:58;8.73;;;2.30;;
11539;SDS011;5826;54.756;9.192;2022-09-17T04:06:24;6.60;;;2.00;;
11539;SDS011;5826;54.756;9.192;2022-09-17T04:08:49;6.53;;;1.90;;
11539;SDS011;5826;54.756;9.192;2022-09-17T04:11:15;8.43;;;2.35;;
11539;SDS011;5826;54.756;9.192;2022-09-17T04:13:40;4.63;;;1.70;;
11539;SDS011;5826;54.756;9.192;2022-09-17T04:16:06;5.18;;;1.88;;
11539;SDS011;5826;54.756;9.192;2022-09-17T04:18:31;8.75;;;2.67;;
11539;SDS011;5826;54.756;9.192;2022-09-17T04:20:57;5.68;;;1.90;;
11539;SDS011;5826;54.756;9.192;2022-09-17T04:23:23;6.28;;;1.83;;
11539;SDS011;5826;54.756;9.192;2022-09-17T04:25:48;7.05;;;1.67;;
11539;SDS011;5826;54.756;9.192;2022-09-17T04:28:14;5.63;;;1.90;;
11539;SDS011;5826;54.756;9.192;2022-09-17T04:30:40;7.28;;;1.98;;
11539;SDS011;5826;54.756;9.192;2022-09-17T04:33:07;4.75;;;1.58;;
11539;SDS011;5826;54.756;9.192;2022-09-17T04:35:33;5.38;;;1.98;;
11539;SDS011;5826;54.756;9.192;2022-09-17T04:37:59;4.93;;;1.80;;
11539;SDS011;5826;54.756;9.192;2022-09-17T04:40:26;10.20;;;2.10;;
11539;SDS011;5826;54.756;9.192;2022-09-17T04:42:52;5.95;;;1.67;;
11539;SDS011;5826;54.756;9.192;2022-09-17T04:45:19;7.97;;;1.85;;
11539;SDS011;5826;54.756;9.192;2022-09-17T04:47:45;5.53;;;1.80;;
11539;SDS011;5826;54.756;9.192;2022-09-17T04:50:10;6.22;;;1.75;;
11539;SDS011;5826;54.756;9.192;2022-09-17T04:52:36;6.90;;;2.35;;
11539;SDS011;5826;54.756;9.192;2022-09-17T04:55:01;7.78;;;2.17;;
11539;SDS011;5826;54.756;9.192;2022-09-17T04:57:27;6.60;;;1.65;;
11539;SDS011;5826;54.756;9.192;2022-09-17T04:59:52;6.28;;;2.10;;
11539;SDS011;5826;54.756;9.192;2022-09-17T05:02:18;6.50;;;1.95;;
11539;SDS011;5826;54.756;9.192;2022-09-17T05:04:44;8.00;;;1.95;;
11539;SDS011;5826;54.756;9.192;2022-09-17T05:07:09;8.07;;;1.90;;
11539;SDS011;5826;54.756;9.192;2022-09-17T05:09:34;4.93;;;1.80;;
11539;SDS011;5826;54.756;9.192;2022-09-17T05:12:00;9.50;;;2.15;;
11539;SDS011;5826;54.756;9.192;2022-09-17T05:14:26;5.68;;;2.20;;
11539;SDS011;5826;54.756;9.192;2022-09-17T05:16:51;5.80;;;1.65;;
11539;SDS011;5826;54.756;9.192;2022-09-17T05:19:17;5.43;;;1.60;;
11539;SDS011;5826;54.756;9.192;2022-09-17T05:21:42;6.70;;;1.98;;
11539;SDS011;5826;54.756;9.192;2022-09-17T05:24:08;6.32;;;1.75;;
11539;SDS011;5826;54.756;9.192;2022-09-17T05:26:33;5.97;;;1.83;;
11539;SDS011;5826;54.756;9.192;2022-09-17T05:28:59;5.80;;;1.80;;
11539;SDS011;5826;54.756;9.192;2022-09-17T05:31:24;7.75;;;1.92;;
11539;SDS011;5826;54.756;9.192;2022-09-17T05:33:50;4.70;;;1.60;;
11539;SDS011;5826;54.756;9.192;2022-09-17T05:36:15;6.03;;;1.73;;
11539;SDS011;5826;54.756;9.192;2022-09-17T05:38:41;6.63;;;2.03;;
11539;SDS011;5826;54.756;9.192;2022-09-17T05:41:07;5.28;;;1.80;;
11539;SDS011;5826;54.756;9.192;2022-09-17T05:43:32;4.72;;;1.77;;
11539;SDS011;5826;54.756;9.192;2022-09-17T05:46:01;4.93;;;1.50;;
11539;SDS011;5826;54.756;9.192;2022-09-17T05:48:28;6.75;;;1.98;;
11539;SDS011;5826;54.756;9.192;2022-09-17T05:50:54;5.38;;;1.77;;
11539;SDS011;5826;54.756;9.192;2022-09-17T05:53:19;4.93;;;1.90;;
11539;SDS011;5826;54.756;9.192;2022-09-17T05:55:45;6.88;;;2.17;;
11539;SDS011;5826;54.756;9.192;2022-09-17T05:58:11;6.38;;;2.00;;
11539;SDS011;5826;54.756;9.192;2022-09-17T06:00:41;6.63;;;1.80;;
11539;SDS011;5826;54.756;9.192;2022-09-17T06:03:10;5.57;;;1.80;;
11539;SDS011;5826;54.756;9.192;2022-09-17T06:05:37;6.90;;;2.05;;
11539;SDS011;5826;54.756;9.192;2022-09-17T06:08:03;5.95;;;2.28;;
11539;SDS011;5826;54.756;9.192;2022-09-17T06:10:29;5.55;;;2.13;;
11539;SDS011;5826;54.756;9.192;2022-09-17T06:12:58;6.82;;;2.60;;
11539;SDS011;5826;54.756;9.192;2022-09-17T06:15:24;6.05;;;2.70;;
11539;SDS011;5826;54.756;9.192;2022-09-17T06:17:51;8.27;;;2.63;;
11539;SDS011;5826;54.756;9.192;2022-09-17T06:20:17;6.80;;;2.22;;
11539;SDS011;5826;54.756;9.192;2022-09-17T06:22:43;8.00;;;2.60;;
11539;SDS011;5826;54.756;9.192;2022-09-17T06:25:09;9.95;;;2.40;;
11539;SDS011;5826;54.756;9.192;2022-09-17T06:27:36;9.20;;;2.35;;
11539;SDS011;5826;54.756;9.192;2022-09-17T06:30:01;4.43;;;1.85;;
11539;SDS011;5826;54.756;9.192;2022-09-17T06:32:27;5.63;;;1.67;;
11539;SDS011;5826;54.756;9.192;2022-09-17T06:34:53;5.53;;;1.80;;
11539;SDS011;5826;54.756;9.192;2022-09-17T06:37:29;5.38;;;1.70;;
11539;SDS011;5826;54.756;9.192;2022-09-17T06:39:56;4.22;;;1.70;;
11539;SDS011;5826;54.756;9.192;2022-09-17T06:42:23;6.57;;;1.73;;
11539;SDS011;5826;54.756;9.192;2022-09-17T06:44:49;4.13;;;1.52;;
11539;SDS011;5826;54.756;9.192;2022-09-17T06:47:14;6.07;;;1.88;;
11539;SDS011;5826;54.756;9.192;2022-09-17T06:49:40;3.88;;;1.40;;
11539;SDS011;5826;54.756;9.192;2022-09-17T06:52:05;4.20;;;1.70;;
11539;SDS011;5826;54.756;9.192;2022-09-17T06:54:31;5.88;;;1.70;;
11539;SDS011;5826;54.756;9.192;2022-09-17T06:56:56;6.22;;;2.03;;
11539;SDS011;5826;54.756;9.192;2022-09-17T06:59:22;4.80;;;1.60;;
11539;SDS011;5826;54.756;9.192;2022-09-17T07:01:48;6.47;;;1.75;;
11539;SDS011;5826;54.756;9.192;2022-09-17T07:04:13;7.22;;;2.08;;
11539;SDS011;5826;54.756;9.192;2022-09-17T07:06:42;6.10;;;1.83;;
11539;SDS011;5826;54.756;9.192;2022-09-17T07:09:07;4.43;;;1.63;;
11539;SDS011;5826;54.756;9.192;2022-09-17T07:11:33;5.78;;;1.73;;
11539;SDS011;5826;54.756;9.192;2022-09-17T07:13:59;5.97;;;1.90;;
11539;SDS011;5826;54.756;9.192;2022-09-17T07:16:24;6.07;;;1.83;;
11539;SDS011;5826;54.756;9.192;2022-09-17T07:18:56;5.28;;;2.00;;
11539;SDS011;5826;54.756;9.192;2022-09-17T07:21:21;7.53;;;2.05;;
11539;SDS011;5826;54.756;9.192;2022-09-17T07:23:47;4.90;;;1.58;;
11539;SDS011;5826;54.756;9.192;2022-09-17T07:26:13;5.47;;;2.20;;
11539;SDS011;5826;54.756;9.192;2022-09-17T07:28:39;4.80;;;1.80;;
11539;SDS011;5826;54.756;9.192;2022-09-17T07:31:05;5.05;;;1.45;;
11539;SDS011;5826;54.756;9.192;2022-09-17T07:33:32;3.65;;;1.52;;
11539;SDS011;5826;54.756;9.192;2022-09-17T07:36:00;7.05;;;1.80;;
11539;SDS011;5826;54.756;9.192;2022-09-17T07:38:27;5.13;;;1.77;;
11539;SDS011;5826;54.756;9.192;2022-09-17T07:40:54;4.65;;;1.83;;
11539;SDS011;5826;54.756;9.192;2022-09-17T07:43:22;4.97;;;1.88;;
11539;SDS011;5826;54.756;9.192;2022-09-17T07:45:48;2.92;;;1.45;;
11539;SDS011;5826;54.756;9.192;2022-09-17T07:48:14;3.17;;;1.40;;
11539;SDS011;5826;54.756;9.192;2022-09-17T07:50:39;2.63;;;1.30;;
11539;SDS011;5826;54.756;9.192;2022-09-17T07:53:04;7.47;;;1.90;;
11539;SDS011;5826;54.756;9.192;2022-09-17T07:55:30;3.97;;;1.75;;
11539;SDS011;5826;54.756;9.192;2022-09-17T07:57:56;3.97;;;1.60;;
11539;SDS011;5826;54.756;9.192;2022-09-17T08:00:22;4.47;;;1.50;;
11539;SDS011;5826;54.756;9.192;2022-09-17T08:02:57;4.40;;;1.42;;
11539;SDS011;5826;54.756;9.192;2022-09-17T08:05:22;4.30;;;1.30;;
11539;SDS011;5826;54.756;9.192;2022-09-17T08:07:49;4.38;;;1.38;;
11539;SDS011;5826;54.756;9.192;2022-09-17T08:10:15;3.20;;;1.38;;
11539;SDS011;5826;54.756;9.192;2022-09-17T08:12:45;2.28;;;1.10;;
11539;SDS011;5826;54.756;9.192;2022-09-17T08:15:12;5.82;;;1.30;;
11539;SDS011;5826;54.756;9.192;2022-09-17T08:17:41;3.67;;;1.38;;
11539;SDS011;5826;54.756;9.192;2022-09-17T08:20:08;3.75;;;1.38;;
11539;SDS011;5826;54.756;9.192;2022-09-17T08:22:33;4.10;;;1.15;;
11539;SDS011;5826;54.756;9.192;2022-09-17T08:24:59;3.55;;;1.05;;
11539;SDS011;5826;54.756;9.192;2022-09-17T08:27:25;3.53;;;1.30;;
11539;SDS011;5826;54.756;9.192;2022-09-17T08:29:50;3.03;;;1.13;;
11539;SDS011;5826;54.756;9.192;2022-09-17T08:32:16;5.05;;;1.20;;
11539;SDS011;5826;54.756;9.192;2022-09-17T08:34:41;2.72;;;1.30;;
11539;SDS011;5826;54.756;9.192;2022-09-17T08:37:07;2.70;;;1.10;;
11539;SDS011;5826;54.756;9.192;2022-09-17T08:39:32;2.85;;;1.10;;
11539;SDS011;5826;54.756;9.192;2022-09-17T08:42:07;4.68;;;1.65;;
11539;SDS011;5826;54.756;9.192;2022-09-17T08:44:48;3.22;;;1.23;;
11539;SDS011;5826;54.756;9.192;2022-09-17T08:47:15;3.80;;;1.20;;
11539;SDS011;5826;54.756;9.192;2022-09-17T08:49:58;4.18;;;1.15;;
11539;SDS011;5826;54.756;9.192;2022-09-17T09:00:50;2.33;;;0.90;;
11539;SDS011;5826;54.756;9.192;2022-09-17T09:03:37;3.20;;;1.30;;
11539;SDS011;5826;54.756;9.192;2022-09-17T09:06:29;3.30;;;1.10;;
11539;SDS011;5826;54.756;9.192;2022-09-17T09:09:09;2.95;;;1.20;;
11539;SDS011;5826;54.756;9.192;2022-09-17T09:11:38;3.13;;;1.20;;
11539;SDS011;5826;54.756;9.192;2022-09-17T09:14:16;2.83;;;1.20;;
11539;SDS011;5826;54.756;9.192;2022-09-17T09:16:55;3.22;;;1.00;;
11539;SDS011;5826;54.756;9.192;2022-09-17T09:19:25;2.88;;;1.15;;
11539;SDS011;5826;54.756;9.192;2022-09-17T09:24:52;2.65;;;1.00;;
11539;SDS011;5826;54.756;9.192;2022-09-17T09:27:27;2.55;;;1.00;;
11539;SDS011;5826;54.756;9.192;2022-09-17T09:30:04;5.20;;;1.30;;
11539;SDS011;5826;54.756;9.192;2022-09-17T09:35:38;3.67;;;1.38;;
11539;SDS011;5826;54.756;9.192;2022-09-17T09:40:52;3.72;;;1.25;;
11539;SDS011;5826;54.756;9.192;2022-09-17T09:46:16;3.08;;;1.20;;
11539;SDS011;5826;54.756;9.192;2022-09-17T09:51:45;2.95;;;0.93;;
11539;SDS011;5826;54.756;9.192;2022-09-17T09:54:46;2.00;;;0.98;;
11539;SDS011;5826;54.756;9.192;2022-09-17T09:57:32;3.08;;;1.10;;
11539;SDS011;5826;54.756;9.192;2022-09-17T10:00:21;3.42;;;1.10;;
11539;SDS011;5826;54.756;9.192;2022-09-17T10:02:47;2.22;;;0.98;;
11539;SDS011;5826;54.756;9.192;2022-09-17T10:05:17;2.65;;;1.20;;
11539;SDS011;5826;54.756;9.192;2022-09-17T10:07:43;2.88;;;1.00;;
11539;SDS011;5826;54.756;9.192;2022-09-17T10:10:09;3.47;;;1.10;;
11539;SDS011;5826;54.756;9.192;2022-09-17T10:12:35;3.97;;;1.15;;
11539;SDS011;5826;54.756;9.192;2022-09-17T10:15:35;2.38;;;0.80;;
11539;SDS011;5826;54.756;9.192;2022-09-17T10:18:39;1.45;;;0.80;;
11539;SDS011;5826;54.756;9.192;2022-09-17T10:20:59;2.00;;;0.85;;
11539;SDS011;5826;54.756;9.192;2022-09-17T10:23:28;3.25;;;1.08;;
11539;SDS011;5826;54.756;9.192;2022-09-17T10:25:57;1.73;;;0.80;;
11539;SDS011;5826;54.756;9.192;2022-09-17T10:31:20;2.90;;;1.20;;
11539;SDS011;5826;54.756;9.192;2022-09-17T10:33:50;3.08;;;1.10;;
11539;SDS011;5826;54.756;9.192;2022-09-17T10:41:54;1.63;;;0.90;;
11539;SDS011;5826;54.756;9.192;2022-09-17T10:44:28;2.60;;;1.00;;
11539;SDS011;5826;54.756;9.192;2022-09-17T10:47:00;4.22;;;1.00;;
11539;SDS011;5826;54.756;9.192;2022-09-17T10:49:48;3.08;;;1.17;;
11539;SDS011;5826;54.756;9.192;2022-09-17T10:57:46;1.25;;;0.70;;
11539;SDS011;5826;54.756;9.192;2022-09-17T11:00:55;1.52;;;0.60;;
11539;SDS011;5826;54.756;9.192;2022-09-17T11:09:32;1.75;;;0.70;;
11539;SDS011;5826;54.756;9.192;2022-09-17T11:12:25;1.88;;;0.82;;
11539;SDS011;5826;54.756;9.192;2022-09-17T11:15:22;2.10;;;0.77;;
11539;SDS011;5826;54.756;9.192;2022-09-17T11:18:04;1.55;;;0.60;;
11539;SDS011;5826;54.756;9.192;2022-09-17T11:20:46;1.23;;;0.60;;
11539;SDS011;5826;54.756;9.192;2022-09-17T11:23:40;1.65;;;0.80;;
11539;SDS011;5826;54.756;9.192;2022-09-17T11:28:59;1.15;;;0.98;;
11539;SDS011;5826;54.756;9.192;2022-09-17T11:34:37;1.65;;;0.80;;
11539;SDS011;5826;54.756;9.192;2022-09-17T11:37:25;1.58;;;0.80;;
11539;SDS011;5826;54.756;9.192;2022-09-17T11:39:58;2.13;;;0.70;;
11539;SDS011;5826;54.756;9.192;2022-09-17T11:42:37;1.00;;;0.80;;
11539;SDS011;5826;54.756;9.192;2022-09-17T11:48:31;1.48;;;0.80;;
11539;SDS011;5826;54.756;9.192;2022-09-17T11:50:48;1.20;;;0.88;;
11539;SDS011;5826;54.756;9.192;2022-09-17T11:59:01;1.52;;;0.70;;
11539;SDS011;5826;54.756;9.192;2022-09-17T12:01:38;1.75;;;0.70;;
11539;SDS011;5826;54.756;9.192;2022-09-17T12:07:26;0.98;;;0.50;;
11539;SDS011;5826;54.756;9.192;2022-09-17T12:12:55;1.25;;;0.60;;
11539;SDS011;5826;54.756;9.192;2022-09-17T12:15:26;0.40;;;0.30;;
11539;SDS011;5826;54.756;9.192;2022-09-17T12:20:35;0.63;;;0.60;;
11539;SDS011;5826;54.756;9.192;2022-09-17T12:23:05;1.65;;;0.70;;
11539;SDS011;5826;54.756;9.192;2022-09-17T12:25:44;1.30;;;0.60;;
11539;SDS011;5826;54.756;9.192;2022-09-17T12:28:34;0.80;;;0.40;;
11539;SDS011;5826;54.756;9.192;2022-09-17T12:31:19;0.90;;;0.60;;
11539;SDS011;5826;54.756;9.192;2022-09-17T12:34:07;0.60;;;0.45;;
11539;SDS011;5826;54.756;9.192;2022-09-17T12:36:41;0.98;;;0.52;;
11539;SDS011;5826;54.756;9.192;2022-09-17T12:39:22;2.28;;;0.60;;
11539;SDS011;5826;54.756;9.192;2022-09-17T12:47:42;1.42;;;0.80;;
11539;SDS011;5826;54.756;9.192;2022-09-17T12:50:28;0.73;;;0.52;;
11539;SDS011;5826;54.756;9.192;2022-09-17T12:53:07;1.75;;;0.95;;
11539;SDS011;5826;54.756;9.192;2022-09-17T13:01:37;1.42;;;0.75;;
11539;SDS011;5826;54.756;9.192;2022-09-17T13:04:16;0.77;;;0.68;;
11539;SDS011;5826;54.756;9.192;2022-09-17T13:06:59;1.98;;;0.70;;
11539;SDS011;5826;54.756;9.192;2022-09-17T13:09:55;1.40;;;0.80;;
11539;SDS011;5826;54.756;9.192;2022-09-17T13:12:26;1.02;;;0.70;;
11539;SDS011;5826;54.756;9.192;2022-09-17T13:17:52;1.20;;;0.75;;
11539;SDS011;5826;54.756;9.192;2022-09-17T13:23:32;5.50;;;3.97;;
11539;SDS011;5826;54.756;9.192;2022-09-17T13:25:59;6.63;;;6.00;;
11539;SDS011;5826;54.756;9.192;2022-09-17T13:28:36;6.10;;;5.60;;
11539;SDS011;5826;54.756;9.192;2022-09-17T13:31:03;5.45;;;4.00;;
11539;SDS011;5826;54.756;9.192;2022-09-17T13:33:48;9.20;;;8.38;;
11539;SDS011;5826;54.756;9.192;2022-09-17T13:36:37;4.93;;;4.40;;
11539;SDS011;5826;54.756;9.192;2022-09-17T13:42:08;4.40;;;3.15;;
11539;SDS011;5826;54.756;9.192;2022-09-17T13:44:44;4.10;;;2.47;;
11539;SDS011;5826;54.756;9.192;2022-09-17T13:47:16;3.83;;;2.33;;
11539;SDS011;5826;54.756;9.192;2022-09-17T13:49:45;3.00;;;2.25;;
11539;SDS011;5826;54.756;9.192;2022-09-17T13:52:29;2.50;;;1.80;;
11539;SDS011;5826;54.756;9.192;2022-09-17T13:57:58;5.88;;;2.00;;
11539;SDS011;5826;54.756;9.192;2022-09-17T14:05:56;2.47;;;0.93;;
11539;SDS011;5826;54.756;9.192;2022-09-17T14:13:46;2.63;;;1.25;;
11539;SDS011;5826;54.756;9.192;2022-09-17T14:22:10;5.20;;;2.97;;
11539;SDS011;5826;54.756;9.192;2022-09-17T14:24:44;2.88;;;1.98;;
11539;SDS011;5826;54.756;9.192;2022-09-17T14:30:21;3.45;;;1.73;;
11539;SDS011;5826;54.756;9.192;2022-09-17T14:35:18;3.28;;;1.50;;
11539;SDS011;5826;54.756;9.192;2022-09-17T14:38:19;1.48;;;1.15;;
11539;SDS011;5826;54.756;9.192;2022-09-17T14:40:46;1.58;;;1.00;;
11539;SDS011;5826;54.756;9.192;2022-09-17T14:46:02;1.77;;;1.15;;
11539;SDS011;5826;54.756;9.192;2022-09-17T14:48:30;1.55;;;0.80;;
11539;SDS011;5826;54.756;9.192;2022-09-17T14:53:41;2.03;;;1.10;;
11539;SDS011;5826;54.756;9.192;2022-09-17T14:56:08;3.47;;;1.27;;
11539;SDS011;5826;54.756;9.192;2022-09-17T14:58:39;2.25;;;1.10;;
11539;SDS011;5826;54.756;9.192;2022-09-17T15:01:14;2.08;;;1.10;;
11539;SDS011;5826;54.756;9.192;2022-09-17T15:03:49;2.33;;;1.17;;
11539;SDS011;5826;54.756;9.192;2022-09-17T15:06:33;3.88;;;1.20;;
11539;SDS011;5826;54.756;9.192;2022-09-17T15:08:59;2.05;;;1.15;;
11539;SDS011;5826;54.756;9.192;2022-09-17T15:11:25;3.58;;;1.30;;
11539;SDS011;5826;54.756;9.192;2022-09-17T15:13:52;3.33;;;1.27;;
11539;SDS011;5826;54.756;9.192;2022-09-17T15:16:21;2.05;;;1.00;;
11539;SDS011;5826;54.756;9.192;2022-09-17T15:18:57;3.63;;;1.25;;
11539;SDS011;5826;54.756;9.192;2022-09-17T15:21:32;4.68;;;1.42;;
11539;SDS011;5826;54.756;9.192;2022-09-17T15:24:13;3.90;;;1.20;;
11539;SDS011;5826;54.756;9.192;2022-09-17T15:26:43;3.47;;;1.33;;
11539;SDS011;5826;54.756;9.192;2022-09-17T15:29:12;2.88;;;1.45;;
11539;SDS011;5826;54.756;9.192;2022-09-17T15:31:38;3.92;;;1.20;;
11539;SDS011;5826;54.756;9.192;2022-09-17T15:34:05;5.20;;;1.25;;
11539;SDS011;5826;54.756;9.192;2022-09-17T15:36:31;2.72;;;1.00;;
11539;SDS011;5826;54.756;9.192;2022-09-17T15:38:57;3.20;;;1.27;;
11539;SDS011;5826;54.756;9.192;2022-09-17T15:43:48;4.75;;;1.25;;
11539;SDS011;5826;54.756;9.192;2022-09-17T15:46:21;2.95;;;1.17;;
11539;SDS011;5826;54.756;9.192;2022-09-17T15:48:54;3.33;;;1.10;;
11539;SDS011;5826;54.756;9.192;2022-09-17T15:53:50;4.50;;;1.25;;
11539;SDS011;5826;54.756;9.192;2022-09-17T15:56:18;4.35;;;1.35;;
11539;SDS011;5826;54.756;9.192;2022-09-17T16:08:45;3.17;;;1.20;;
11539;SDS011;5826;54.756;9.192;2022-09-17T16:11:22;3.67;;;1.30;;
11539;SDS011;5826;54.756;9.192;2022-09-17T16:13:53;4.47;;;1.38;;
11539;SDS011;5826;54.756;9.192;2022-09-17T16:16:21;3.78;;;1.15;;
11539;SDS011;5826;54.756;9.192;2022-09-17T16:18:49;3.65;;;1.00;;
11539;SDS011;5826;54.756;9.192;2022-09-17T16:21:15;2.78;;;1.13;;
11539;SDS011;5826;54.756;9.192;2022-09-17T16:23:42;4.13;;;1.48;;
11539;SDS011;5826;54.756;9.192;2022-09-17T16:26:09;3.72;;;1.23;;
11539;SDS011;5826;54.756;9.192;2022-09-17T16:28:40;2.88;;;1.20;;
11539;SDS011;5826;54.756;9.192;2022-09-17T16:31:07;5.60;;;1.45;;
11539;SDS011;5826;54.756;9.192;2022-09-17T16:33:36;4.45;;;1.33;;
11539;SDS011;5826;54.756;9.192;2022-09-17T16:36:02;3.38;;;1.15;;
11539;SDS011;5826;54.756;9.192;2022-09-17T16:38:28;2.58;;;1.10;;
11539;SDS011;5826;54.756;9.192;2022-09-17T16:40:54;3.45;;;1.40;;
11539;SDS011;5826;54.756;9.192;2022-09-17T16:43:19;3.72;;;1.30;;
11539;SDS011;5826;54.756;9.192;2022-09-17T16:45:58;6.07;;;1.30;;
11539;SDS011;5826;54.756;9.192;2022-09-17T16:48:28;3.65;;;1.38;;
11539;SDS011;5826;54.756;9.192;2022-09-17T16:50:54;3.83;;;1.20;;
11539;SDS011;5826;54.756;9.192;2022-09-17T16:53:20;4.18;;;1.63;;
11539;SDS011;5826;54.756;9.192;2022-09-17T16:55:45;3.25;;;1.20;;
11539;SDS011;5826;54.756;9.192;2022-09-17T16:58:11;5.03;;;1.38;;
11539;SDS011;5826;54.756;9.192;2022-09-17T17:00:37;3.42;;;1.30;;
11539;SDS011;5826;54.756;9.192;2022-09-17T17:03:02;4.90;;;1.60;;
11539;SDS011;5826;54.756;9.192;2022-09-17T17:05:29;2.85;;;1.20;;
11539;SDS011;5826;54.756;9.192;2022-09-17T17:07:55;3.67;;;1.23;;
11539;SDS011;5826;54.756;9.192;2022-09-17T17:10:22;4.05;;;1.48;;
11539;SDS011;5826;54.756;9.192;2022-09-17T17:12:50;4.10;;;1.42;;
11539;SDS011;5826;54.756;9.192;2022-09-17T17:15:16;4.53;;;1.75;;
11539;SDS011;5826;54.756;9.192;2022-09-17T17:17:42;4.03;;;1.30;;
11539;SDS011;5826;54.756;9.192;2022-09-17T17:20:08;5.47;;;1.50;;
11539;SDS011;5826;54.756;9.192;2022-09-17T17:22:34;4.22;;;1.30;;
11539;SDS011;5826;54.756;9.192;2022-09-17T17:25:02;3.00;;;1.30;;
11539;SDS011;5826;54.756;9.192;2022-09-17T17:27:29;3.78;;;1.40;;
11539;SDS011;5826;54.756;9.192;2022-09-17T17:29:54;3.65;;;1.38;;
11539;SDS011;5826;54.756;9.192;2022-09-17T17:32:20;4.15;;;1.48;;
11539;SDS011;5826;54.756;9.192;2022-09-17T17:34:45;3.97;;;1.30;;
11539;SDS011;5826;54.756;9.192;2022-09-17T17:37:11;4.03;;;1.23;;
11539;SDS011;5826;54.756;9.192;2022-09-17T17:39:38;3.20;;;1.20;;
11539;SDS011;5826;54.756;9.192;2022-09-17T17:42:04;3.33;;;1.20;;
11539;SDS011;5826;54.756;9.192;2022-09-17T17:44:29;4.47;;;1.50;;
11539;SDS011;5826;54.756;9.192;2022-09-17T17:46:55;4.78;;;1.40;;
11539;SDS011;5826;54.756;9.192;2022-09-17T17:49:20;4.00;;;1.60;;
11539;SDS011;5826;54.756;9.192;2022-09-17T17:51:46;4.97;;;1.50;;
11539;SDS011;5826;54.756;9.192;2022-09-17T17:54:12;3.10;;;1.40;;
11539;SDS011;5826;54.756;9.192;2022-09-17T17:56:37;3.00;;;1.23;;